Terminal Aerodrome Forecast
Issued by NWS

Current Version | Previous Version | Text Only | Print | Product List | Glossary On
Versions: 1 2 3 4 5 6 7 8 9 10 11 12 13 14 15 16 17 18 19 20 21 22 23 24 25 26 27 28 29 30 31 32 33 34 35 36 37 38 39 40 41 42 43 44
000
FTUS45 KGJT 181125
TAFEGE
TAF
KEGE 181125Z 1812/1912 00000KT P6SM SCT015 BKN060
      TEMPO 1812/1814 4SM BR BKN012
     FM181900 VRB04KT P6SM VCSH SCT040 BKN060
     FM182200 28007KT 4SM -SNRA OVC015
     FM190100 06005KT P6SM VCSH OVC020
     FM190600 VRB03KT P6SM VCSH BKN040
      AMD LTD TO CLD VIS AND WIND TIL 181300=

USA.gov is the U.S. government's official web portal to all federal, state and local government web resources and services.